Time;durP1;ratioP1;P1;durP2;ratioP2;P2;SDS_P1;SDS_P2;PMS_P1;PMS_P2;Temp;Humidity;BMP_temperature;BMP_pressure;BME280_temperature;BME280_humidity;BME280_pressure;Samples;Min_cycle;Max_cycle;Signal;HPM_P1;HPM_P2
2023/06/22 00:01:59;;;;;;;4.07;2.78;;;22.00;65.00;;;;;;5084697;28;20022;-68
2023/06/22 00:04:25;;;;;;;4.07;2.60;;;22.00;65.10;;;;;;5092925;28;20096;-67
2023/06/22 00:06:50;;;;;;;3.85;3.05;;;22.00;65.10;;;;;;5086579;28;20040;-66
2023/06/22 00:09:16;;;;;;;4.00;2.90;;;22.00;65.10;;;;;;5087659;28;20058;-67
2023/06/22 00:11:41;;;;;;;6.65;3.72;;;21.90;65.30;;;;;;5084566;28;20024;-66
2023/06/22 00:14:07;;;;;;;3.65;2.83;;;21.90;65.70;;;;;;5087184;28;20052;-67
2023/06/22 00:16:33;;;;;;;5.05;3.70;;;21.80;65.80;;;;;;5077285;28;20040;-67
2023/06/22 00:19:01;;;;;;;5.20;4.03;;;21.80;66.20;;;;;;5081698;28;20027;-67
2023/06/22 00:21:27;;;;;;;4.57;3.40;;;21.70;66.70;;;;;;5077437;28;20589;-68
2023/06/22 00:23:53;;;;;;;5.25;3.70;;;21.50;67.30;;;;;;5082029;28;20067;-67
2023/06/22 00:26:19;;;;;;;4.68;3.45;;;21.40;67.60;;;;;;5088024;28;20467;-67
2023/06/22 00:28:44;;;;;;;3.85;3.20;;;21.40;67.70;;;;;;5086060;28;20394;-68
2023/06/22 00:31:10;;;;;;;4.70;3.72;;;21.40;67.70;;;;;;5084720;28;20020;-68
2023/06/22 00:33:36;;;;;;;4.35;3.53;;;21.30;68.30;;;;;;5083201;28;20040;-68
2023/06/22 00:36:02;;;;;;;5.63;3.97;;;21.30;68.50;;;;;;5082386;28;20028;-69
2023/06/22 00:38:28;;;;;;;4.55;3.55;;;21.30;68.70;;;;;;5089427;28;20522;-68
2023/06/22 00:40:54;;;;;;;4.28;3.25;;;21.30;68.70;;;;;;5086705;28;20040;-68
2023/06/22 00:43:20;;;;;;;4.43;3.00;;;21.20;68.60;;;;;;5078049;28;20086;-69
2023/06/22 00:45:45;;;;;;;5.95;4.30;;;21.30;68.50;;;;;;5090173;28;20383;-68
2023/06/22 00:48:12;;;;;;;5.15;3.60;;;21.10;69.10;;;;;;5081565;28;20065;-69
2023/06/22 00:50:38;;;;;;;3.85;3.10;;;21.10;69.50;;;;;;5080641;28;20025;-69
2023/06/22 00:53:09;;;;;;;4.35;3.13;;;21.00;69.60;;;;;;5080332;28;20034;-69
2023/06/22 00:55:39;;;;;;;5.25;3.28;;;21.00;69.60;;;;;;5084913;28;20021;-69
2023/06/22 00:58:10;;;;;;;3.97;3.30;;;21.00;69.40;;;;;;5078796;28;20024;-69
2023/06/22 01:00:36;;;;;;;3.97;2.88;;;21.10;69.30;;;;;;5084624;28;20489;-69
2023/06/22 01:03:02;;;;;;;3.78;2.90;;;21.00;69.10;;;;;;5077074;28;20059;-69
2023/06/22 01:05:31;;;;;;;4.63;3.30;;;21.10;69.10;;;;;;5080454;28;20153;-68
2023/06/22 01:08:30;;;;;;;3.40;2.97;;;21.10;69.20;;;;;;5082822;28;20398;-68
2023/06/22 01:11:10;;;;;;;3.75;3.33;;;21.10;69.00;;;;;;5077407;28;20497;-69
2023/06/22 01:13:50;;;;;;;4.03;3.33;;;21.00;69.10;;;;;;5080721;28;20077;-69
2023/06/22 01:16:32;;;;;;;3.00;2.60;;;21.00;69.10;;;;;;5084798;28;20032;-70
2023/06/22 01:19:03;;;;;;;3.05;2.45;;;21.00;69.50;;;;;;5087102;28;20032;-70
2023/06/22 01:21:31;;;;;;;4.05;3.20;;;21.10;68.70;;;;;;5071194;28;20048;-69
2023/06/22 01:24:22;;;;;;;4.05;3.00;;;21.10;68.70;;;;;;5078255;28;20479;-69
2023/06/22 01:27:25;;;;;;;4.72;3.30;;;21.10;68.60;;;;;;5077616;28;20461;-69
2023/06/22 01:30:00;;;;;;;4.07;3.38;;;21.10;68.50;;;;;;5078363;28;20081;-69
2023/06/22 01:32:36;;;;;;;4.65;3.38;;;21.10;68.50;;;;;;5095254;28;20024;-70
2023/06/22 01:35:05;;;;;;;4.40;3.50;;;21.10;68.60;;;;;;5087290;28;20032;-70
2023/06/22 01:37:33;;;;;;;4.43;3.45;;;21.00;68.60;;;;;;5102383;28;20035;-70
2023/06/22 01:39:59;;;;;;;4.07;3.55;;;21.00;68.80;;;;;;5086731;28;20103;-67
2023/06/22 01:42:25;;;;;;;6.03;3.75;;;21.00;68.90;;;;;;5087739;28;20116;-67
2023/06/22 01:44:55;;;;;;;5.45;3.90;;;21.00;68.90;;;;;;5079683;28;20024;-68
2023/06/22 01:47:23;;;;;;;4.90;4.05;;;21.00;69.10;;;;;;5093560;28;20517;-67
2023/06/22 01:49:51;;;;;;;7.15;4.30;;;21.00;69.10;;;;;;5093293;28;20016;-67
2023/06/22 01:52:17;;;;;;;4.70;3.83;;;20.90;69.30;;;;;;5103877;28;20035;-67
2023/06/22 01:54:43;;;;;;;4.80;3.42;;;20.90;69.50;;;;;;5091023;28;20497;-67
2023/06/22 01:57:10;;;;;;;5.30;4.30;;;20.90;69.60;;;;;;5099213;28;20043;-67
2023/06/22 01:59:44;;;;;;;4.22;3.72;;;20.80;69.60;;;;;;5085562;28;20020;-68
2023/06/22 02:02:12;;;;;;;4.95;3.95;;;20.80;69.80;;;;;;5087626;28;20452;-68
2023/06/22 02:04:39;;;;;;;5.57;4.00;;;20.80;69.90;;;;;;5090946;28;20015;-67
2023/06/22 02:07:10;;;;;;;6.25;4.22;;;20.80;70.10;;;;;;5081969;28;20530;-68
2023/06/22 02:09:38;;;;;;;5.18;3.92;;;20.70;70.30;;;;;;5093382;28;20023;-68
2023/06/22 02:12:06;;;;;;;6.15;4.57;;;20.70;70.40;;;;;;5091549;28;20024;-68
2023/06/22 02:14:32;;;;;;;5.20;3.72;;;20.70;70.50;;;;;;5093823;28;20016;-68
2023/06/22 02:17:01;;;;;;;5.60;4.32;;;20.70;70.50;;;;;;5081170;28;20109;-67
2023/06/22 02:19:27;;;;;;;5.82;4.80;;;20.60;70.80;;;;;;5090110;28;20523;-67
2023/06/22 02:21:53;;;;;;;4.80;4.03;;;20.50;71.30;;;;;;5089685;28;20035;-67
2023/06/22 02:24:18;;;;;;;5.70;4.45;;;20.50;71.50;;;;;;5080285;28;20084;-67
2023/06/22 02:26:45;;;;;;;6.53;4.82;;;20.50;71.50;;;;;;5088683;28;20020;-67
2023/06/22 02:29:11;;;;;;;5.63;4.22;;;20.50;71.50;;;;;;5082231;28;20077;-67
2023/06/22 02:31:36;;;;;;;5.25;4.35;;;20.50;71.50;;;;;;5091744;28;20028;-67
2023/06/22 02:34:02;;;;;;;5.20;4.30;;;20.50;71.40;;;;;;5078334;28;20059;-68
2023/06/22 02:36:30;;;;;;;7.20;4.53;;;20.50;71.40;;;;;;5101562;28;20504;-67
2023/06/22 02:38:58;;;;;;;4.97;4.13;;;20.50;71.30;;;;;;5084334;28;20032;-67
2023/06/22 02:41:24;;;;;;;7.28;4.68;;;20.50;71.40;;;;;;5083370;28;20023;-68
2023/06/22 02:43:49;;;;;;;5.68;4.57;;;20.50;71.50;;;;;;5083895;28;20569;-67
2023/06/22 02:46:15;;;;;;;6.43;4.88;;;20.50;71.60;;;;;;5083725;28;20516;-67
2023/06/22 02:48:41;;;;;;;6.47;5.30;;;20.50;71.80;;;;;;5085940;28;20028;-68
2023/06/22 02:51:07;;;;;;;6.57;5.05;;;20.50;71.90;;;;;;5089761;28;20433;-67
2023/06/22 02:53:33;;;;;;;6.32;4.57;;;20.50;72.10;;;;;;5080070;27;20028;-67
2023/06/22 02:56:01;;;;;;;6.82;5.22;;;20.40;72.10;;;;;;5075770;28;20089;-67
2023/06/22 02:58:26;;;;;;;5.55;4.38;;;20.50;72.30;;;;;;5078960;28;20016;-68
2023/06/22 03:00:52;;;;;;;6.57;4.78;;;20.40;72.40;;;;;;5087069;28;20490;-67
2023/06/22 03:03:19;;;;;;;6.43;5.20;;;20.50;72.50;;;;;;5099200;28;20619;-69
2023/06/22 03:05:45;;;;;;;6.32;5.03;;;20.40;72.40;;;;;;5084335;28;20041;-68
2023/06/22 03:08:10;;;;;;;6.45;4.90;;;20.40;72.60;;;;;;5083522;28;20024;-68
2023/06/22 03:10:36;;;;;;;7.10;5.32;;;20.40;72.70;;;;;;5081420;28;20020;-67
2023/06/22 03:13:02;;;;;;;7.78;5.05;;;20.40;72.70;;;;;;5085984;28;20076;-68
2023/06/22 03:15:29;;;;;;;6.88;5.38;;;20.40;72.80;;;;;;5091008;28;20107;-67
2023/06/22 03:17:55;;;;;;;6.20;4.82;;;20.40;72.80;;;;;;5095743;28;20054;-67
2023/06/22 03:20:20;;;;;;;6.63;5.47;;;20.40;72.90;;;;;;5102333;28;20667;-68
2023/06/22 03:22:46;;;;;;;8.60;5.57;;;20.40;73.00;;;;;;5096029;28;20028;-68
2023/06/22 03:25:15;;;;;;;6.38;5.10;;;20.40;73.10;;;;;;5088298;28;20048;-68
2023/06/22 03:27:41;;;;;;;6.93;5.97;;;20.40;73.10;;;;;;5090252;28;20044;-68
2023/06/22 03:30:08;;;;;;;7.90;6.20;;;20.40;73.20;;;;;;5089609;28;20027;-67
2023/06/22 03:32:34;;;;;;;7.38;5.72;;;20.40;73.40;;;;;;5096868;28;20115;-67
2023/06/22 03:35:00;;;;;;;8.13;6.93;;;20.40;73.40;;;;;;5092773;28;20150;-67
2023/06/22 03:37:26;;;;;;;9.30;7.03;;;20.30;74.00;;;;;;5082616;28;20028;-67
2023/06/22 03:39:52;;;;;;;8.52;6.25;;;20.20;74.50;;;;;;5098585;28;20035;-66
2023/06/22 03:42:18;;;;;;;8.15;6.50;;;20.20;74.50;;;;;;5091175;28;20032;-67
2023/06/22 03:44:44;;;;;;;6.90;5.82;;;20.20;74.60;;;;;;5093782;28;20402;-67
2023/06/22 03:47:09;;;;;;;7.03;5.25;;;20.10;74.50;;;;;;5083674;28;20162;-66
2023/06/22 03:49:35;;;;;;;9.65;7.30;;;20.10;74.50;;;;;;5079418;28;20031;-67
2023/06/22 03:52:02;;;;;;;8.82;7.47;;;20.10;74.70;;;;;;5089178;28;20025;-68
2023/06/22 03:54:28;;;;;;;10.13;8.15;;;20.00;75.20;;;;;;5102885;28;20026;-67
2023/06/22 03:56:53;;;;;;;8.18;6.30;;;20.00;75.70;;;;;;5092614;28;20067;-68
2023/06/22 03:59:19;;;;;;;7.60;6.47;;;20.00;75.70;;;;;;5091588;28;20041;-68
2023/06/22 04:01:46;;;;;;;8.93;7.60;;;20.00;75.70;;;;;;5090950;28;20024;-68
2023/06/22 04:04:12;;;;;;;10.23;8.07;;;20.00;75.90;;;;;;5071738;28;20059;-69
2023/06/22 04:06:38;;;;;;;8.80;7.20;;;19.90;75.90;;;;;;5080311;28;20027;-69
2023/06/22 04:09:05;;;;;;;10.80;9.15;;;19.90;75.90;;;;;;5090885;28;20506;-68
2023/06/22 04:11:30;;;;;;;11.13;8.65;;;19.90;76.70;;;;;;5084536;28;20537;-67
2023/06/22 04:13:56;;;;;;;10.50;8.80;;;19.90;76.80;;;;;;5084427;28;20036;-68
2023/06/22 04:16:21;;;;;;;9.85;8.50;;;19.90;76.90;;;;;;5079065;28;20506;-68
2023/06/22 04:18:47;;;;;;;10.38;9.23;;;19.80;76.90;;;;;;5071179;28;20036;-68
2023/06/22 04:21:13;;;;;;;10.77;9.35;;;19.90;77.20;;;;;;5071833;28;20059;-69
2023/06/22 04:23:38;;;;;;;12.95;10.35;;;19.90;77.30;;;;;;5085618;28;20031;-69
2023/06/22 04:26:04;;;;;;;12.32;10.15;;;19.90;77.60;;;;;;5080037;28;20032;-68
2023/06/22 04:28:34;;;;;;;17.13;12.90;;;19.90;77.80;;;;;;5082916;28;20553;-68
2023/06/22 04:31:02;;;;;;;11.32;10.13;;;19.80;78.70;;;;;;5096304;28;20020;-69
2023/06/22 04:33:31;;;;;;;10.60;8.85;;;19.80;78.80;;;;;;5080272;28;20024;-69
2023/06/22 04:35:57;;;;;;;12.07;10.18;;;19.80;78.70;;;;;;5071192;28;20044;-68
2023/06/22 04:38:23;;;;;;;11.32;10.05;;;19.90;78.60;;;;;;5077686;28;20028;-68
2023/06/22 04:40:50;;;;;;;12.70;10.45;;;19.90;78.60;;;;;;5085281;28;20521;-69
2023/06/22 04:43:15;;;;;;;11.98;10.18;;;20.00;78.60;;;;;;5082454;28;20084;-68
2023/06/22 04:45:41;;;;;;;16.55;12.48;;;20.10;78.60;;;;;;5086062;28;20491;-68
2023/06/22 04:48:09;;;;;;;15.63;13.38;;;20.10;79.30;;;;;;5089164;28;20560;-69
2023/06/22 04:50:37;;;;;;;13.35;11.18;;;20.10;79.60;;;;;;5087405;28;20489;-69
2023/06/22 04:53:05;;;;;;;13.23;11.27;;;20.20;79.40;;;;;;5095051;28;20054;-68
2023/06/22 04:55:33;;;;;;;11.10;9.25;;;20.30;79.20;;;;;;5086650;28;20412;-68
2023/06/22 04:58:04;;;;;;;14.90;12.45;;;20.40;78.70;;;;;;5083994;28;20031;-69
2023/06/22 05:00:30;;;;;;;11.15;9.88;;;20.50;78.80;;;;;;5081453;28;20023;-69
2023/06/22 05:02:57;;;;;;;13.50;11.05;;;20.70;78.30;;;;;;5095255;28;20610;-69
2023/06/22 05:05:23;;;;;;;13.27;11.13;;;20.90;77.90;;;;;;5094404;28;20046;-70
2023/06/22 05:07:52;;;;;;;11.98;10.68;;;21.00;77.30;;;;;;5078906;28;20020;-68
2023/06/22 05:10:19;;;;;;;11.77;9.35;;;21.20;76.90;;;;;;5090469;28;20103;-68
2023/06/22 05:12:45;;;;;;;12.50;11.18;;;21.50;76.00;;;;;;5089901;28;20486;-69
2023/06/22 05:15:11;;;;;;;12.00;10.20;;;21.80;75.10;;;;;;5087652;28;20099;-68
2023/06/22 05:17:42;;;;;;;13.45;11.45;;;22.10;74.30;;;;;;5090311;28;20099;-68
2023/06/22 05:20:10;;;;;;;12.02;9.60;;;22.20;73.60;;;;;;5084865;28;20032;-68
2023/06/22 05:22:35;;;;;;;14.13;11.45;;;22.40;73.10;;;;;;5073091;28;20056;-67
2023/06/22 05:25:01;;;;;;;12.30;9.73;;;22.40;73.00;;;;;;5095095;28;20070;-69
2023/06/22 05:27:26;;;;;;;12.15;10.45;;;22.40;73.10;;;;;;5083386;28;20070;-68
2023/06/22 05:29:52;;;;;;;12.07;10.27;;;22.50;72.80;;;;;;5074685;28;20032;-69
2023/06/22 05:32:18;;;;;;;11.48;10.32;;;22.50;72.60;;;;;;5081932;28;20085;-67
2023/06/22 05:34:44;;;;;;;11.13;9.32;;;22.60;72.40;;;;;;5086282;28;20534;-68
2023/06/22 05:37:09;;;;;;;11.38;9.75;;;22.60;72.20;;;;;;5080700;28;20081;-69
2023/06/22 05:39:37;;;;;;;11.27;10.00;;;22.70;72.10;;;;;;5081633;28;20028;-67
2023/06/22 05:42:07;;;;;;;11.57;9.60;;;22.70;72.00;;;;;;5087222;28;20024;-68
2023/06/22 05:44:33;;;;;;;10.95;8.00;;;22.80;72.00;;;;;;5095283;28;20024;-69
2023/06/22 05:46:59;;;;;;;12.60;11.30;;;23.00;71.70;;;;;;5088966;28;20032;-69
2023/06/22 05:49:29;;;;;;;11.18;9.85;;;22.90;71.50;;;;;;5089121;28;20020;-69
2023/06/22 05:51:56;;;;;;;12.43;10.85;;;22.80;71.70;;;;;;5098146;28;20470;-69
2023/06/22 05:54:21;;;;;;;17.13;14.63;;;22.60;71.90;;;;;;5081733;28;20054;-69
2023/06/22 05:56:47;;;;;;;13.55;11.18;;;22.40;72.40;;;;;;5091172;28;20613;-69
2023/06/22 05:59:13;;;;;;;10.82;9.23;;;22.20;73.10;;;;;;5079630;28;20028;-68
2023/06/22 06:01:39;;;;;;;11.95;9.93;;;22.30;73.40;;;;;;5079801;28;20050;-68
2023/06/22 06:04:07;;;;;;;11.38;9.20;;;22.50;73.40;;;;;;5085102;28;20747;-69
2023/06/22 06:06:36;;;;;;;10.43;9.32;;;22.70;72.80;;;;;;5097526;28;20080;-69
2023/06/22 06:09:05;;;;;;;10.35;8.18;;;22.90;72.30;;;;;;5082445;28;20533;-69
2023/06/22 06:11:31;;;;;;;8.48;7.60;;;23.20;71.70;;;;;;5081565;28;20097;-69
2023/06/22 06:13:56;;;;;;;11.52;9.98;;;23.30;71.20;;;;;;5081717;28;20063;-69
2023/06/22 06:16:22;;;;;;;9.80;8.02;;;23.30;70.70;;;;;;5082245;28;20040;-70
2023/06/22 06:18:50;;;;;;;9.43;8.05;;;23.50;70.60;;;;;;5086887;28;20024;-69
2023/06/22 06:21:16;;;;;;;9.50;7.90;;;23.60;70.10;;;;;;5082514;28;20047;-69
2023/06/22 06:23:42;;;;;;;10.90;9.55;;;23.80;69.60;;;;;;5081446;28;20413;-69
2023/06/22 06:26:08;;;;;;;11.25;9.65;;;24.00;69.10;;;;;;5088070;28;20020;-69
2023/06/22 06:28:34;;;;;;;9.63;8.63;;;23.90;69.50;;;;;;5092232;28;20483;-70
2023/06/22 06:30:59;;;;;;;9.38;7.78;;;24.10;68.60;;;;;;5088557;28;20028;-70
2023/06/22 06:33:25;;;;;;;9.93;8.93;;;24.30;68.30;;;;;;5079641;28;20081;-71
2023/06/22 06:35:51;;;;;;;8.75;7.50;;;24.40;67.60;;;;;;5093018;28;20032;-69
2023/06/22 06:38:16;;;;;;;9.50;7.82;;;24.30;67.60;;;;;;5088673;28;20108;-69
2023/06/22 06:40:42;;;;;;;8.90;7.97;;;24.50;68.20;;;;;;5079450;28;20560;-69
2023/06/22 06:43:07;;;;;;;9.18;6.50;;;24.70;67.10;;;;;;5102558;28;20037;-69
2023/06/22 06:45:34;;;;;;;9.48;8.25;;;24.80;66.80;;;;;;5089580;28;20020;-69
2023/06/22 06:48:00;;;;;;;9.38;7.90;;;25.00;66.00;;;;;;5085607;28;20024;-69
2023/06/22 06:50:26;;;;;;;7.75;6.80;;;25.10;65.90;;;;;;5084808;28;20471;-69
2023/06/22 06:52:51;;;;;;;9.57;7.22;;;25.20;65.60;;;;;;5085940;28;20031;-69
2023/06/22 06:55:19;;;;;;;8.90;6.63;;;25.30;65.00;;;;;;5079750;28;20090;-69
2023/06/22 06:57:48;;;;;;;8.57;7.28;;;25.50;64.90;;;;;;5079145;28;20509;-69
2023/06/22 07:00:15;;;;;;;9.43;7.90;;;25.60;63.90;;;;;;5078527;28;20031;-67
2023/06/22 07:02:41;;;;;;;6.57;5.88;;;25.40;63.60;;;;;;5085080;28;20378;-67
2023/06/22 07:05:08;;;;;;;7.28;6.13;;;25.50;64.10;;;;;;5082487;28;20024;-67
2023/06/22 07:07:34;;;;;;;8.68;7.38;;;25.60;63.60;;;;;;5094066;28;20097;-67
2023/06/22 07:10:00;;;;;;;8.55;7.07;;;25.70;62.80;;;;;;5077877;28;20486;-67
2023/06/22 07:12:25;;;;;;;7.00;6.07;;;25.80;62.80;;;;;;5080693;28;20073;-67
2023/06/22 07:14:52;;;;;;;7.13;6.13;;;26.00;62.60;;;;;;5078212;28;20028;-67
2023/06/22 07:17:18;;;;;;;9.75;7.90;;;26.00;62.10;;;;;;5077663;28;20028;-67
2023/06/22 07:19:44;;;;;;;6.38;5.53;;;25.80;61.60;;;;;;5091248;28;20028;-67
2023/06/22 07:22:09;;;;;;;6.10;5.50;;;25.70;62.40;;;;;;5096012;28;20032;-67
2023/06/22 07:24:35;;;;;;;7.55;6.07;;;25.60;62.30;;;;;;5098136;28;20054;-67
2023/06/22 07:27:02;;;;;;;5.93;5.15;;;25.70;62.40;;;;;;5096487;28;20028;-67
2023/06/22 07:29:27;;;;;;;6.70;5.88;;;25.70;62.40;;;;;;5097488;28;20030;-67
2023/06/22 07:31:53;;;;;;;6.95;5.93;;;25.70;62.20;;;;;;5094258;28;20024;-67
2023/06/22 07:34:19;;;;;;;6.47;5.72;;;25.70;62.30;;;;;;5074458;28;20024;-67
2023/06/22 07:36:45;;;;;;;6.47;5.60;;;25.80;62.30;;;;;;5084186;28;20093;-67
2023/06/22 07:39:11;;;;;;;6.15;5.40;;;25.90;62.30;;;;;;5090245;28;20048;-67
2023/06/22 07:41:38;;;;;;;7.25;5.60;;;26.00;62.20;;;;;;5094930;28;20578;-67
2023/06/22 07:44:04;;;;;;;6.28;5.10;;;26.20;62.70;;;;;;5088839;28;20024;-67
2023/06/22 07:46:30;;;;;;;6.85;5.30;;;26.30;61.70;;;;;;5091207;28;20095;-67
2023/06/22 07:48:56;;;;;;;6.28;4.85;;;26.30;61.40;;;;;;5083647;28;20494;-67
2023/06/22 07:51:23;;;;;;;5.80;4.82;;;26.30;61.20;;;;;;5080889;28;20022;-67
2023/06/22 07:53:48;;;;;;;6.55;4.75;;;26.20;61.20;;;;;;5081295;28;20105;-67
2023/06/22 07:56:18;;;;;;;8.02;5.10;;;26.20;61.20;;;;;;5081413;28;20067;-67
2023/06/22 07:58:45;;;;;;;8.30;5.63;;;26.20;60.90;;;;;;5079648;28;20039;-67
2023/06/22 08:01:11;;;;;;;5.57;4.75;;;26.20;60.60;;;;;;5079264;28;20028;-67
2023/06/22 08:03:37;;;;;;;6.57;5.90;;;26.20;60.80;;;;;;5080700;28;20103;-67
2023/06/22 08:06:03;;;;;;;6.90;5.50;;;26.10;60.60;;;;;;5080873;28;20032;-67
2023/06/22 08:08:29;;;;;;;5.28;4.70;;;25.90;60.60;;;;;;5084585;28;20085;-67
2023/06/22 08:10:54;;;;;;;5.93;5.15;;;25.90;60.80;;;;;;5079891;28;20024;-67
2023/06/22 08:13:20;;;;;;;6.07;5.00;;;25.80;60.90;;;;;;5081632;28;20040;-67
2023/06/22 08:15:45;;;;;;;5.53;4.50;;;25.70;61.20;;;;;;5086994;28;20123;-67
2023/06/22 08:18:11;;;;;;;6.32;4.53;;;25.80;61.20;;;;;;5082352;28;20023;-67
2023/06/22 08:20:37;;;;;;;5.85;4.80;;;26.00;61.10;;;;;;5076694;28;20032;-67
2023/06/22 08:23:06;;;;;;;7.65;5.90;;;26.00;60.90;;;;;;5076204;28;20355;-68
2023/06/22 08:25:32;;;;;;;6.75;5.38;;;25.80;60.50;;;;;;5080156;28;20012;-68
2023/06/22 08:27:58;;;;;;;6.93;5.55;;;25.80;61.40;;;;;;5082241;28;20054;-68
2023/06/22 08:30:24;;;;;;;5.22;4.55;;;25.60;60.80;;;;;;5084556;28;20033;-68
2023/06/22 08:32:49;;;;;;;6.18;4.25;;;25.60;61.30;;;;;;5082454;28;20378;-68
2023/06/22 08:35:15;;;;;;;4.90;4.13;;;25.70;61.20;;;;;;5085709;28;20024;-68
2023/06/22 08:37:41;;;;;;;5.32;4.32;;;25.80;60.90;;;;;;5081706;28;20073;-68
2023/06/22 08:40:09;;;;;;;6.38;5.10;;;25.90;60.60;;;;;;5081926;28;20031;-68
2023/06/22 08:42:40;;;;;;;6.97;5.97;;;26.00;60.20;;;;;;5082824;28;20031;-68
2023/06/22 08:45:06;;;;;;;8.40;4.88;;;25.90;59.80;;;;;;5081188;28;20040;-68
2023/06/22 08:47:32;;;;;;;5.93;4.40;;;25.80;60.20;;;;;;5086985;28;20112;-68
2023/06/22 08:49:57;;;;;;;5.47;4.30;;;26.00;60.20;;;;;;5085782;28;20099;-68
2023/06/22 08:52:23;;;;;;;5.88;4.78;;;26.30;60.10;;;;;;5087492;28;20042;-68
2023/06/22 08:54:49;;;;;;;5.53;4.30;;;26.40;59.60;;;;;;5081071;28;20024;-68
2023/06/22 08:57:15;;;;;;;5.63;4.38;;;26.40;59.70;;;;;;5087345;28;20529;-68
2023/06/22 08:59:42;;;;;;;5.05;4.03;;;26.50;59.50;;;;;;5090628;28;20023;-68
2023/06/22 09:02:07;;;;;;;4.35;3.72;;;26.50;59.30;;;;;;5082379;28;20081;-68
2023/06/22 09:04:34;;;;;;;4.10;3.50;;;26.60;59.20;;;;;;5081136;28;20048;-68
2023/06/22 09:07:03;;;;;;;4.80;3.90;;;26.70;58.90;;;;;;5080843;28;20478;-68
2023/06/22 09:09:29;;;;;;;5.20;4.18;;;26.70;58.60;;;;;;5088844;28;20054;-68
2023/06/22 09:11:54;;;;;;;4.68;3.95;;;26.70;58.20;;;;;;5085548;28;20091;-68
2023/06/22 09:14:20;;;;;;;6.32;4.88;;;26.70;58.30;;;;;;5083172;28;20105;-68
2023/06/22 09:16:45;;;;;;;5.00;4.10;;;26.80;57.70;;;;;;5085395;28;20038;-68
2023/06/22 09:19:11;;;;;;;4.88;3.65;;;26.60;57.30;;;;;;5088132;28;20024;-68
2023/06/22 09:21:37;;;;;;;5.72;4.47;;;26.60;57.50;;;;;;5089277;28;20073;-68
2023/06/22 09:24:02;;;;;;;4.72;3.75;;;26.80;56.80;;;;;;5086745;28;20459;-68
2023/06/22 09:26:28;;;;;;;4.32;3.30;;;26.90;57.10;;;;;;5087308;28;20036;-68
2023/06/22 09:28:54;;;;;;;7.47;3.53;;;27.10;56.70;;;;;;5085294;28;20025;-68
2023/06/22 09:31:25;;;;;;;4.25;3.28;;;27.20;56.30;;;;;;5084271;28;20020;-68
2023/06/22 09:33:54;;;;;;;8.45;3.80;;;27.40;55.50;;;;;;5081687;28;20032;-68
2023/06/22 09:36:23;;;;;;;4.90;3.50;;;27.30;53.80;;;;;;5086143;28;20382;-68
2023/06/22 09:38:54;;;;;;;6.45;4.82;;;27.20;53.60;;;;;;5086738;28;20081;-68
2023/06/22 09:41:20;;;;;;;4.93;3.40;;;27.10;52.60;;;;;;5089171;28;20121;-68
2023/06/22 09:43:46;;;;;;;6.65;3.88;;;26.90;53.20;;;;;;5090591;28;20573;-68
2023/06/22 09:46:12;;;;;;;5.85;4.57;;;26.80;52.90;;;;;;5078759;28;20040;-68
2023/06/22 09:48:37;;;;;;;5.00;3.70;;;26.60;53.50;;;;;;5084275;28;20012;-68
2023/06/22 09:51:03;;;;;;;2.92;2.55;;;26.60;54.30;;;;;;5085749;28;20400;-68
2023/06/22 09:53:28;;;;;;;5.60;3.92;;;26.70;54.50;;;;;;5081818;28;20126;-68
2023/06/22 09:55:54;;;;;;;4.35;3.90;;;26.60;54.00;;;;;;5090032;28;20028;-68
2023/06/22 09:58:19;;;;;;;6.10;3.22;;;26.60;54.50;;;;;;5088438;28;20422;-68
2023/06/22 10:00:45;;;;;;;4.05;3.50;;;26.70;54.90;;;;;;5082243;28;20028;-68
2023/06/22 10:03:11;;;;;;;5.35;3.08;;;26.80;55.10;;;;;;5084968;28;20024;-68
2023/06/22 10:05:36;;;;;;;6.50;4.03;;;26.90;54.80;;;;;;5084597;28;20029;-68
2023/06/22 10:08:02;;;;;;;5.32;3.90;;;26.90;54.70;;;;;;5082092;28;20031;-68
2023/06/22 10:10:28;;;;;;;6.05;4.30;;;26.70;53.00;;;;;;5076092;28;20024;-68
2023/06/22 10:12:57;;;;;;;4.03;3.17;;;26.60;53.80;;;;;;5085057;28;20397;-68
2023/06/22 10:15:23;;;;;;;3.88;3.33;;;26.60;54.50;;;;;;5089004;28;20118;-68
2023/06/22 10:17:49;;;;;;;3.53;2.80;;;26.50;54.30;;;;;;5088162;28;20142;-68
2023/06/22 10:20:15;;;;;;;3.63;3.03;;;26.50;54.50;;;;;;5086874;28;20032;-68
2023/06/22 10:22:44;;;;;;;3.63;3.05;;;26.50;54.10;;;;;;5086854;28;20039;-68
2023/06/22 10:25:12;;;;;;;4.05;3.40;;;26.40;53.90;;;;;;5084818;28;20157;-68
2023/06/22 10:27:40;;;;;;;4.18;3.20;;;26.30;54.00;;;;;;5088939;28;20029;-68
2023/06/22 10:30:12;;;;;;;4.18;3.30;;;26.20;54.20;;;;;;5081351;28;20473;-68
2023/06/22 10:32:39;;;;;;;3.35;2.90;;;26.40;54.40;;;;;;5090627;28;20033;-68
2023/06/22 10:35:05;;;;;;;3.60;3.00;;;26.40;54.30;;;;;;5089196;28;20574;-68
2023/06/22 10:37:31;;;;;;;3.08;2.75;;;26.50;54.20;;;;;;5091566;28;20031;-68
2023/06/22 10:39:56;;;;;;;4.20;3.10;;;26.50;54.80;;;;;;5087340;28;20036;-68
2023/06/22 10:42:22;;;;;;;3.30;2.90;;;26.60;54.20;;;;;;5090254;28;20035;-68
2023/06/22 10:44:48;;;;;;;3.47;3.00;;;26.60;54.20;;;;;;5087334;28;20035;-68
2023/06/22 10:47:13;;;;;;;3.13;2.33;;;26.70;54.20;;;;;;5084817;28;20020;-68
2023/06/22 10:49:40;;;;;;;3.85;3.42;;;26.80;54.30;;;;;;5086762;28;20388;-68
2023/06/22 10:52:07;;;;;;;3.80;3.13;;;26.80;54.20;;;;;;5087198;28;20146;-68
2023/06/22 10:54:34;;;;;;;3.40;2.80;;;26.80;54.30;;;;;;5082028;28;20051;-68
2023/06/22 10:57:00;;;;;;;4.47;3.40;;;26.70;54.50;;;;;;5083874;28;20048;-68
2023/06/22 10:59:26;;;;;;;4.05;3.22;;;26.80;54.70;;;;;;5088390;28;20039;-68
2023/06/22 11:01:53;;;;;;;3.47;3.10;;;26.80;54.60;;;;;;5080513;28;20470;-68
2023/06/22 11:04:18;;;;;;;5.95;3.75;;;26.80;54.50;;;;;;5091654;28;20093;-68
2023/06/22 11:06:44;;;;;;;4.28;3.35;;;26.80;54.30;;;;;;5085787;28;20032;-68
2023/06/22 11:09:10;;;;;;;3.65;3.33;;;26.70;54.60;;;;;;5087343;28;20024;-68
2023/06/22 11:11:35;;;;;;;3.97;3.15;;;26.70;54.70;;;;;;5091332;28;20077;-68
2023/06/22 11:14:01;;;;;;;3.58;3.00;;;26.70;54.90;;;;;;5088581;28;20035;-68
2023/06/22 11:16:27;;;;;;;3.58;3.08;;;26.80;55.10;;;;;;5087667;28;20035;-68
2023/06/22 11:18:53;;;;;;;3.40;2.97;;;26.80;55.10;;;;;;5086190;28;20404;-69
2023/06/22 11:21:18;;;;;;;3.90;3.42;;;26.80;55.20;;;;;;5089989;28;20016;-68
2023/06/22 11:23:45;;;;;;;5.22;4.13;;;26.80;55.20;;;;;;5087911;28;20463;-68
2023/06/22 11:26:10;;;;;;;4.43;3.67;;;26.80;55.30;;;;;;5094093;28;20021;-68
2023/06/22 11:28:36;;;;;;;5.10;3.63;;;26.80;55.50;;;;;;5087679;28;20052;-68
2023/06/22 11:31:01;;;;;;;4.82;4.00;;;26.70;55.70;;;;;;5085039;28;20046;-68
2023/06/22 11:33:27;;;;;;;6.35;4.70;;;26.70;56.00;;;;;;5087102;28;20035;-68
2023/06/22 11:35:53;;;;;;;5.07;3.75;;;26.40;56.10;;;;;;5086814;28;20042;-68
2023/06/22 11:38:18;;;;;;;4.47;3.83;;;26.30;56.70;;;;;;5084653;28;20100;-69
2023/06/22 11:40:44;;;;;;;5.47;4.60;;;26.30;57.20;;;;;;5086636;28;20513;-68
2023/06/22 11:43:10;;;;;;;4.75;3.67;;;26.10;57.60;;;;;;5094283;28;20032;-68
2023/06/22 11:45:35;;;;;;;4.80;3.85;;;26.00;58.00;;;;;;5081700;28;20019;-68
2023/06/22 11:48:01;;;;;;;4.35;3.63;;;25.90;58.40;;;;;;5086950;28;20074;-68
2023/06/22 11:50:29;;;;;;;4.15;3.70;;;25.70;58.70;;;;;;5082072;28;20082;-68
2023/06/22 11:52:55;;;;;;;7.32;4.20;;;25.70;59.30;;;;;;5085699;28;20114;-68
2023/06/22 11:55:21;;;;;;;4.30;3.78;;;25.60;59.50;;;;;;5084958;28;20448;-68
2023/06/22 11:57:59;;;;;;;4.07;3.63;;;25.60;59.90;;;;;;5081241;28;21697;-68
2023/06/22 12:00:25;;;;;;;23.67;15.70;;;25.60;60.40;;;;;;5091587;28;20039;-68
2023/06/22 12:02:51;;;;;;;7.55;6.47;;;25.50;60.80;;;;;;5083423;28;20032;-68
2023/06/22 12:05:20;;;;;;;6.70;4.35;;;25.50;61.50;;;;;;5083692;28;20068;-69
2023/06/22 12:07:46;;;;;;;4.97;4.13;;;25.20;62.30;;;;;;5077157;28;20704;-68
2023/06/22 12:10:12;;;;;;;4.45;4.05;;;25.00;63.00;;;;;;5082007;28;20024;-68
2023/06/22 12:12:38;;;;;;;4.47;3.50;;;25.00;63.50;;;;;;5080321;28;20020;-68
2023/06/22 12:15:04;;;;;;;5.18;4.30;;;25.00;64.00;;;;;;5080016;28;20089;-68
2023/06/22 12:17:30;;;;;;;4.80;4.30;;;24.80;64.40;;;;;;5081996;28;20028;-68
2023/06/22 12:19:55;;;;;;;5.00;4.07;;;24.70;64.70;;;;;;5084072;28;20035;-68
2023/06/22 12:22:21;;;;;;;5.43;4.70;;;24.60;65.30;;;;;;5082885;28;20023;-68
2023/06/22 12:24:47;;;;;;;5.35;4.22;;;24.50;65.90;;;;;;5081068;28;20020;-68
2023/06/22 12:27:16;;;;;;;6.47;4.13;;;24.40;66.40;;;;;;5086008;28;20102;-68
2023/06/22 12:29:41;;;;;;;6.32;4.80;;;24.30;66.80;;;;;;5082917;28;20394;-68
2023/06/22 12:32:07;;;;;;;5.15;4.18;;;24.30;67.40;;;;;;5083895;28;20032;-68
2023/06/22 12:34:33;;;;;;;6.57;5.78;;;24.30;68.00;;;;;;5077162;28;20119;-68
2023/06/22 12:36:58;;;;;;;6.15;5.38;;;24.10;69.00;;;;;;5083803;28;20631;-68
2023/06/22 12:39:24;;;;;;;6.32;4.90;;;24.00;70.00;;;;;;5083315;28;20032;-68
2023/06/22 12:41:50;;;;;;;6.40;4.85;;;23.90;70.70;;;;;;5071888;28;20045;-68